Kabwe, Zambia
Current Conditions -  °F | °C
As of 6:00 PM on Tuesday 21 Oct 2014 (Local Time) from FLKK Reporting Station
Clear Clear  
Wind Chill: 82°   Ceiling: Unl
Heat Index: 82°   Visibility: 6mi
Dew Point: 48°   Wind: 12mph
Humidity: 30%   Direction: 100°E
Pressure: 30.09"   Gusts: NA
Location:  14.44°S, 28.45°E
Report Text: FLKK 211600Z 10010KT CAVOK 28/09 Q1019
Loading
Personal Weather Stations






























Interactive Weather Map
Tropical Storm Tracking
New forecast layout! Learn more

10-Day Weather Forecast

Advertisements
Track Severe Weather on mobile